Time;durP1;ratioP1;P1;durP2;ratioP2;P2;SDS_P1;SDS_P2;PMS_P1;PMS_P2;Temp;Humidity;BMP_temperature;BMP_pressure;BME280_temperature;BME280_humidity;BME280_pressure;Samples;Min_cycle;Max_cycle;Signal;HPM_P1;HPM_P2
2022/08/15 00:00:54;;;;;;;0.10;0.00;;;19.30;99.90;;;;;;4888270;29;20458;-86
2022/08/15 00:03:27;;;;;;;0.10;0.10;;;19.30;99.90;;;;;;4889404;29;20445;-86
2022/08/15 00:05:54;;;;;;;0.10;0.10;;;19.30;99.90;;;;;;4893110;29;20457;-86
2022/08/15 00:08:20;;;;;;;0.10;0.10;;;19.20;99.90;;;;;;4894442;29;20945;-87
2022/08/15 00:10:47;;;;;;;0.10;0.10;;;19.20;99.90;;;;;;4908001;29;20452;-86
2022/08/15 00:13:19;;;;;;;0.10;0.00;;;19.20;99.90;;;;;;4895329;29;20812;-86
2022/08/15 00:15:47;;;;;;;0.10;0.10;;;19.20;99.90;;;;;;4892224;29;21017;-85
2022/08/15 00:18:14;;;;;;;0.10;0.10;;;19.20;99.90;;;;;;4902439;29;20537;-86
2022/08/15 00:20:40;;;;;;;0.10;0.10;;;19.10;99.90;;;;;;4895407;29;20445;-85
2022/08/15 00:23:11;;;;;;;0.10;0.10;;;19.10;99.90;;;;;;4895524;29;20828;-85
2022/08/15 00:25:37;;;;;;;0.10;0.10;;;19.10;99.90;;;;;;4883934;29;20441;-85
2022/08/15 00:28:05;;;;;;;0.10;0.10;;;19.00;99.90;;;;;;4890962;29;20453;-85
2022/08/15 00:30:31;;;;;;;0.10;0.10;;;19.00;99.90;;;;;;4886151;29;21772;-86
2022/08/15 00:32:57;;;;;;;0.10;0.10;;;19.00;99.90;;;;;;4895615;29;20532;-85
2022/08/15 00:35:36;;;;;;;0.10;0.10;;;19.00;99.90;;;;;;4893681;29;20958;-86
2022/08/15 00:38:03;;;;;;;0.10;0.00;;;19.00;99.90;;;;;;4907523;29;20477;-86
2022/08/15 00:40:29;;;;;;;0.10;0.10;;;19.00;99.90;;;;;;4889120;29;20471;-86
2022/08/15 00:42:55;;;;;;;0.10;0.10;;;18.90;99.90;;;;;;4879099;29;20460;-86
2022/08/15 00:45:22;;;;;;;0.10;0.10;;;18.90;99.90;;;;;;4891055;29;20461;-86
2022/08/15 00:48:41;;;;;;;0.10;0.10;;;18.80;99.90;;;;;;4892261;29;20200;-85
2022/08/15 00:50:36;;;;;;;0.10;0.10;;;18.80;99.90;;;;;;4884826;29;20950;-86
2022/08/15 00:53:10;;;;;;;0.10;0.10;;;18.80;99.90;;;;;;4891259;29;20461;-86
2022/08/15 00:55:40;;;;;;;0.10;0.10;;;18.80;99.90;;;;;;4891471;29;20453;-85
2022/08/15 00:58:05;;;;;;;0.10;0.10;;;18.80;99.90;;;;;;4881896;29;20513;-86
2022/08/15 01:00:40;;;;;;;0.10;0.00;;;18.70;99.90;;;;;;4892140;29;20532;-85
2022/08/15 01:03:10;;;;;;;0.10;0.10;;;18.70;99.90;;;;;;4885472;29;20452;-86
2022/08/15 01:05:36;;;;;;;0.10;0.00;;;18.70;99.90;;;;;;4893232;29;20525;-86
2022/08/15 01:08:02;;;;;;;0.10;0.10;;;18.60;99.90;;;;;;4894677;29;20450;-86
2022/08/15 01:10:28;;;;;;;0.10;0.10;;;18.60;99.90;;;;;;4891880;29;20570;-86
2022/08/15 01:12:53;;;;;;;0.10;0.10;;;18.60;99.90;;;;;;4891227;29;20533;-86
2022/08/15 01:15:20;;;;;;;0.10;0.10;;;18.50;99.90;;;;;;4891863;29;20252;-86
2022/08/15 01:17:46;;;;;;;0.10;0.10;;;18.50;99.90;;;;;;4886493;29;20669;-86
2022/08/15 01:20:20;;;;;;;0.10;0.10;;;18.50;99.90;;;;;;4893630;29;20464;-86
2022/08/15 01:23:12;;;;;;;0.10;0.10;;;18.50;99.90;;;;;;4893545;29;20240;-86
2022/08/15 01:25:52;;;;;;;0.10;0.10;;;18.60;99.90;;;;;;4893331;29;20963;-86
2022/08/15 01:28:31;;;;;;;0.10;0.00;;;18.50;99.90;;;;;;4891919;29;20441;-86
2022/08/15 01:31:07;;;;;;;0.10;0.10;;;18.50;99.90;;;;;;4891217;29;20453;-86
2022/08/15 01:33:46;;;;;;;0.10;0.10;;;18.60;99.90;;;;;;4892152;29;20543;-86
2022/08/15 01:36:11;;;;;;;0.10;0.10;;;18.60;99.90;;;;;;4887627;29;20463;-85
2022/08/15 01:38:41;;;;;;;0.10;0.10;;;18.50;99.90;;;;;;4892739;29;20496;-86
2022/08/15 01:41:19;;;;;;;0.10;0.10;;;18.50;99.90;;;;;;4891579;29;20822;-86
2022/08/15 01:43:57;;;;;;;0.10;0.10;;;18.40;99.90;;;;;;4892719;29;20500;-86
2022/08/15 01:46:26;;;;;;;0.10;0.10;;;18.40;99.90;;;;;;4888146;29;20456;-86
2022/08/15 01:49:00;;;;;;;0.10;0.10;;;18.40;99.90;;;;;;4883804;29;20954;-85
2022/08/15 01:51:26;;;;;;;0.10;0.10;;;18.30;99.90;;;;;;4890959;29;20528;-86
2022/08/15 01:53:59;;;;;;;0.10;0.10;;;18.30;99.90;;;;;;4891563;29;20535;-86
2022/08/15 01:56:31;;;;;;;0.10;0.10;;;18.40;99.90;;;;;;4887186;29;20193;-85
2022/08/15 01:59:03;;;;;;;0.10;0.10;;;18.50;99.90;;;;;;4892618;29;20504;-86
2022/08/15 02:01:49;;;;;;;0.10;0.10;;;18.60;99.90;;;;;;4882435;29;21026;-85
2022/08/15 02:04:17;;;;;;;0.10;0.10;;;18.50;99.90;;;;;;4889806;29;20456;-86
2022/08/15 02:06:44;;;;;;;0.10;0.10;;;18.50;99.90;;;;;;4888175;29;20477;-86
2022/08/15 02:09:13;;;;;;;0.10;0.10;;;18.50;99.90;;;;;;4893028;29;20532;-85
2022/08/15 02:11:39;;;;;;;0.10;0.10;;;18.60;99.90;;;;;;4887198;29;20450;-86
2022/08/15 02:14:06;;;;;;;0.10;0.10;;;18.50;99.90;;;;;;4885706;29;21000;-86
2022/08/15 02:16:35;;;;;;;0.10;0.10;;;18.50;99.90;;;;;;4891149;29;20457;-86
2022/08/15 02:19:03;;;;;;;0.10;0.10;;;18.60;99.90;;;;;;4895325;29;20591;-85
2022/08/15 02:21:29;;;;;;;0.10;0.10;;;18.70;99.90;;;;;;4896786;29;20536;-86
2022/08/15 02:23:56;;;;;;;0.10;0.10;;;18.60;99.90;;;;;;4892964;29;20457;-86
2022/08/15 02:26:22;;;;;;;0.10;0.00;;;18.70;99.90;;;;;;4892691;29;20997;-86
2022/08/15 02:28:48;;;;;;;0.10;0.10;;;18.70;99.90;;;;;;4897843;29;20532;-86
2022/08/15 02:31:18;;;;;;;0.10;0.00;;;18.70;99.90;;;;;;4896816;29;20536;-86
2022/08/15 02:33:48;;;;;;;0.10;0.10;;;18.60;99.90;;;;;;4896783;29;20195;-87
2022/08/15 02:36:16;;;;;;;0.10;0.10;;;18.60;99.90;;;;;;4897812;29;20425;-86
2022/08/15 02:38:43;;;;;;;0.10;0.10;;;18.50;99.90;;;;;;4897177;29;21361;-86
2022/08/15 02:41:09;;;;;;;0.10;0.10;;;18.50;99.90;;;;;;4897322;29;20449;-86
2022/08/15 02:43:41;;;;;;;0.10;0.10;;;18.40;99.90;;;;;;4898194;29;20437;-86
2022/08/15 02:46:06;;;;;;;0.10;0.10;;;18.50;99.90;;;;;;4895869;29;20199;-85
2022/08/15 02:48:32;;;;;;;0.10;0.10;;;18.40;99.90;;;;;;4897137;29;20460;-87
2022/08/15 02:50:58;;;;;;;0.10;0.10;;;18.40;99.90;;;;;;4897391;29;20545;-86
2022/08/15 02:53:24;;;;;;;0.10;0.10;;;18.30;99.90;;;;;;4896741;29;20264;-86
2022/08/15 02:55:49;;;;;;;0.10;0.10;;;18.50;99.90;;;;;;4896681;29;20461;-86
2022/08/15 02:58:16;;;;;;;0.10;0.10;;;18.40;99.90;;;;;;4897907;29;20839;-85
2022/08/15 03:00:44;;;;;;;0.10;0.10;;;18.40;99.90;;;;;;4896236;29;20272;-85
2022/08/15 03:03:14;;;;;;;0.10;0.10;;;18.60;99.90;;;;;;4897240;29;20441;-86
2022/08/15 03:05:44;;;;;;;0.10;0.10;;;18.60;99.90;;;;;;4897454;29;20524;-85
2022/08/15 03:08:10;;;;;;;0.10;0.10;;;18.50;99.90;;;;;;4898285;29;20473;-85
2022/08/15 03:10:37;;;;;;;0.10;0.10;;;18.50;99.90;;;;;;4896123;29;20481;-86
2022/08/15 03:13:10;;;;;;;0.10;0.10;;;18.50;99.90;;;;;;4898829;29;20773;-86
2022/08/15 03:15:52;;;;;;;0.10;0.10;;;18.50;99.90;;;;;;4897527;29;20507;-87
2022/08/15 03:18:20;;;;;;;0.10;0.10;;;18.50;99.90;;;;;;4897786;29;21015;-87
2022/08/15 03:20:46;;;;;;;0.10;0.10;;;18.50;99.90;;;;;;4895923;29;20485;-87
2022/08/15 03:23:12;;;;;;;0.10;0.10;;;18.50;99.90;;;;;;4895497;29;20942;-87
2022/08/15 03:25:41;;;;;;;0.10;0.10;;;18.50;99.90;;;;;;4878988;29;20454;-87
2022/08/15 03:28:08;;;;;;;0.10;0.10;;;18.50;99.90;;;;;;4888160;29;20981;-86
2022/08/15 03:30:34;;;;;;;0.10;0.10;;;18.40;99.90;;;;;;4905871;29;20784;-85
2022/08/15 03:33:00;;;;;;;0.10;0.10;;;18.50;99.90;;;;;;4896628;29;20480;-86
2022/08/15 03:35:28;;;;;;;0.10;0.10;;;18.40;99.90;;;;;;4890236;29;20478;-87
2022/08/15 03:37:55;;;;;;;0.10;0.10;;;18.50;99.90;;;;;;4896298;29;20231;-86
2022/08/15 03:40:20;;;;;;;0.10;0.10;;;18.50;99.90;;;;;;4894811;29;20869;-86
2022/08/15 03:43:06;;;;;;;0.10;0.10;;;18.60;99.90;;;;;;4891324;29;20451;-86
2022/08/15 03:45:32;;;;;;;0.10;0.10;;;18.50;99.90;;;;;;4894344;29;20242;-87
2022/08/15 03:47:57;;;;;;;0.10;0.10;;;18.50;99.90;;;;;;4884893;29;20901;-86
2022/08/15 03:50:23;;;;;;;0.10;0.00;;;18.60;99.90;;;;;;4892881;29;20458;-86
2022/08/15 03:52:51;;;;;;;0.10;0.10;;;18.60;99.90;;;;;;4897049;29;20177;-87
2022/08/15 03:55:17;;;;;;;0.10;0.10;;;18.60;99.90;;;;;;4893096;29;20720;-87
2022/08/15 03:57:44;;;;;;;0.10;0.10;;;18.50;99.90;;;;;;4889465;29;20457;-86
2022/08/15 04:00:11;;;;;;;0.10;0.10;;;18.50;99.90;;;;;;4893924;29;20875;-85
2022/08/15 04:02:37;;;;;;;0.10;0.10;;;18.50;99.90;;;;;;4893778;29;20445;-85
2022/08/15 04:05:04;;;;;;;0.10;0.10;;;18.50;99.90;;;;;;4890664;29;20453;-86
2022/08/15 04:07:32;;;;;;;0.10;0.10;;;18.50;99.90;;;;;;4889283;29;20213;-87
2022/08/15 04:09:58;;;;;;;0.10;0.10;;;18.60;99.90;;;;;;4893850;29;20461;-86
2022/08/15 04:12:35;;;;;;;0.10;0.10;;;18.50;99.90;;;;;;4893593;29;21059;-86
2022/08/15 04:15:05;;;;;;;0.10;0.10;;;18.60;99.90;;;;;;4893021;29;20544;-86
2022/08/15 04:17:30;;;;;;;0.10;0.10;;;18.50;99.90;;;;;;4887034;29;20986;-86
2022/08/15 04:19:56;;;;;;;0.10;0.10;;;18.50;99.90;;;;;;4880428;29;20504;-86
2022/08/15 04:22:31;;;;;;;0.10;0.10;;;18.50;99.90;;;;;;4889036;29;20606;-86
2022/08/15 04:25:09;;;;;;;0.10;0.10;;;18.50;99.90;;;;;;4886861;29;20675;-86
2022/08/15 04:27:34;;;;;;;0.10;0.10;;;18.40;99.90;;;;;;4896123;29;20938;-87
2022/08/15 04:30:00;;;;;;;0.10;0.10;;;18.40;99.90;;;;;;4894133;29;20536;-86
2022/08/15 04:32:26;;;;;;;0.10;0.10;;;18.40;99.90;;;;;;4895746;29;20185;-87
2022/08/15 04:34:54;;;;;;;0.10;0.10;;;18.40;99.90;;;;;;4895860;29;20441;-87
2022/08/15 04:37:22;;;;;;;0.10;0.00;;;18.30;99.90;;;;;;4895183;29;20441;-87
2022/08/15 04:39:50;;;;;;;0.10;0.10;;;18.30;99.90;;;;;;4894823;29;20492;-86
2022/08/15 04:42:16;;;;;;;0.10;0.10;;;18.30;99.90;;;;;;4896164;29;20437;-86
2022/08/15 04:44:43;;;;;;;0.10;0.10;;;18.30;99.90;;;;;;4895003;29;20512;-86
2022/08/15 04:47:09;;;;;;;0.10;0.10;;;18.30;99.90;;;;;;4896070;29;20444;-86
2022/08/15 04:49:34;;;;;;;0.10;0.10;;;18.30;99.90;;;;;;4910009;29;20437;-86
2022/08/15 04:52:08;;;;;;;0.10;0.10;;;18.30;99.90;;;;;;4894221;29;20714;-86
2022/08/15 04:54:34;;;;;;;0.10;0.10;;;18.40;99.90;;;;;;4894730;29;20201;-86
2022/08/15 04:57:00;;;;;;;0.10;0.10;;;18.40;99.90;;;;;;4895774;29;20453;-86
2022/08/15 04:59:26;;;;;;;0.10;0.00;;;18.40;99.90;;;;;;4894133;29;20852;-86
2022/08/15 05:01:51;;;;;;;0.10;0.00;;;18.40;99.90;;;;;;4895017;29;20188;-86
2022/08/15 05:04:17;;;;;;;0.10;0.10;;;18.40;99.90;;;;;;4894420;29;20208;-84
2022/08/15 05:06:42;;;;;;;0.10;0.00;;;18.40;99.90;;;;;;4894112;29;20198;-86
2022/08/15 05:09:08;;;;;;;0.10;0.10;;;18.50;99.90;;;;;;4894981;29;20569;-85
2022/08/15 05:11:33;;;;;;;0.10;0.10;;;18.60;99.90;;;;;;4891617;29;20185;-85
2022/08/15 05:13:59;;;;;;;0.10;0.10;;;18.60;99.90;;;;;;4888659;29;20232;-85
2022/08/15 05:16:25;;;;;;;0.10;0.00;;;18.60;99.90;;;;;;4894391;29;20963;-85
2022/08/15 05:18:50;;;;;;;0.10;0.10;;;18.70;99.90;;;;;;4894083;29;20221;-86
2022/08/15 05:21:16;;;;;;;0.10;0.10;;;18.70;99.90;;;;;;4895013;29;20824;-86
2022/08/15 05:23:42;;;;;;;0.10;0.10;;;18.70;99.90;;;;;;4894944;29;20245;-86
2022/08/15 05:26:09;;;;;;;0.10;0.10;;;18.80;99.90;;;;;;4887134;29;20203;-86
2022/08/15 05:28:35;;;;;;;0.10;0.10;;;18.80;99.90;;;;;;4893121;29;20473;-85
2022/08/15 05:31:05;;;;;;;0.10;0.10;;;19.00;99.90;;;;;;4895015;29;20465;-84
2022/08/15 05:33:31;;;;;;;0.10;0.10;;;19.00;99.90;;;;;;4892381;29;20513;-86
2022/08/15 05:35:59;;;;;;;0.10;0.10;;;19.10;99.90;;;;;;4894809;29;20445;-87
2022/08/15 05:38:29;;;;;;;0.10;0.10;;;19.20;99.90;;;;;;4894505;29;20602;-88
2022/08/15 05:40:58;;;;;;;0.10;0.10;;;19.30;99.90;;;;;;4894736;29;20449;-88
2022/08/15 05:43:35;;;;;;;0.10;0.10;;;19.40;99.90;;;;;;4892669;29;20452;-88
2022/08/15 05:46:26;;;;;;;0.10;0.00;;;19.60;99.90;;;;;;4893084;29;20448;-88
2022/08/15 05:49:35;;;;;;;0.10;0.00;;;19.60;99.90;;;;;;4894562;29;20517;-88
2022/08/15 05:52:28;;;;;;;0.10;0.00;;;19.80;99.90;;;;;;4880794;29;20452;-87
2022/08/15 05:55:12;;;;;;;0.10;0.10;;;19.90;99.90;;;;;;4892685;29;20453;-88
2022/08/15 05:58:10;;;;;;;0.10;0.00;;;20.00;99.90;;;;;;4893714;29;20539;-88
2022/08/15 06:00:38;;;;;;;0.10;0.00;;;20.10;99.90;;;;;;4894331;29;20553;-88
2022/08/15 06:03:15;;;;;;;0.10;0.00;;;20.20;99.90;;;;;;4895301;29;20433;-88
2022/08/15 06:05:50;;;;;;;0.10;0.00;;;20.20;99.90;;;;;;4894632;29;20525;-89
2022/08/15 06:08:30;;;;;;;0.10;0.10;;;20.30;99.90;;;;;;4893170;29;20457;-89
2022/08/15 06:11:26;;;;;;;0.10;0.00;;;20.40;99.90;;;;;;4893196;29;20513;-90
2022/08/15 06:14:00;;;;;;;0.10;0.10;;;20.50;99.90;;;;;;4893491;29;20484;-89
2022/08/15 06:16:31;;;;;;;0.10;0.00;;;20.60;99.90;;;;;;4894756;29;20438;-89
2022/08/15 06:19:02;;;;;;;0.10;0.00;;;20.60;99.90;;;;;;4894695;29;20513;-90
2022/08/15 06:21:37;;;;;;;0.10;0.07;;;20.60;99.90;;;;;;4894745;29;20453;-88
2022/08/15 06:24:46;;;;;;;0.10;0.00;;;20.70;99.90;;;;;;4892940;29;20484;-88
2022/08/15 06:27:32;;;;;;;0.10;0.00;;;20.90;99.90;;;;;;4891436;29;20437;-90
2022/08/15 06:30:15;;;;;;;0.10;0.00;;;21.00;99.90;;;;;;4892410;29;20457;-84
2022/08/15 06:33:19;;;;;;;0.10;0.00;;;21.10;99.90;;;;;;4891102;29;20949;-84
2022/08/15 06:35:54;;;;;;;0.10;0.00;;;21.20;99.90;;;;;;4883179;29;20448;-84
2022/08/15 06:38:29;;;;;;;0.10;0.00;;;21.30;99.90;;;;;;4891181;29;20484;-85
2022/08/15 06:41:04;;;;;;;0.10;0.00;;;21.30;99.90;;;;;;4892015;29;20984;-84
2022/08/15 06:43:30;;;;;;;0.10;0.00;;;21.50;99.90;;;;;;4895079;29;20485;-83
2022/08/15 06:45:59;;;;;;;0.10;0.00;;;21.60;99.90;;;;;;4892867;29;20444;-85
2022/08/15 06:48:30;;;;;;;0.10;0.00;;;21.60;99.90;;;;;;4893060;29;20594;-85
2022/08/15 06:51:00;;;;;;;0.10;0.10;;;21.60;99.90;;;;;;4893966;29;21048;-86
2022/08/15 06:53:35;;;;;;;0.10;0.10;;;21.70;99.90;;;;;;4892873;29;20449;-88
2022/08/15 06:56:10;;;;;;;0.10;0.10;;;21.80;99.90;;;;;;4897602;29;20810;-86
2022/08/15 06:58:57;;;;;;;0.10;0.00;;;21.90;99.90;;;;;;4894586;29;20500;-88
2022/08/15 07:01:47;;;;;;;0.10;0.00;;;22.00;99.90;;;;;;4891887;29;20479;-87
2022/08/15 07:04:25;;;;;;;0.10;0.00;;;22.20;99.90;;;;;;4893682;29;20536;-88
2022/08/15 07:07:00;;;;;;;0.10;0.00;;;22.30;99.90;;;;;;4897264;29;20440;-87
2022/08/15 07:09:54;;;;;;;0.10;0.00;;;22.30;99.90;;;;;;4896498;29;21012;-88
2022/08/15 07:12:45;;;;;;;0.10;0.00;;;22.40;99.90;;;;;;4897196;29;21257;-87
2022/08/15 07:15:20;;;;;;;0.10;0.00;;;22.60;99.90;;;;;;4887093;29;20822;-86
2022/08/15 07:17:50;;;;;;;0.10;0.00;;;22.80;99.90;;;;;;4897393;29;20508;-87
2022/08/15 07:20:17;;;;;;;0.10;0.00;;;22.90;99.90;;;;;;4894785;29;20961;-87
2022/08/15 07:22:43;;;;;;;0.10;0.00;;;23.00;99.90;;;;;;4895141;29;21096;-89
2022/08/15 07:25:12;;;;;;;0.10;0.10;;;23.10;99.90;;;;;;4897196;29;20449;-88
2022/08/15 07:27:39;;;;;;;0.10;0.00;;;23.20;99.90;;;;;;4896048;29;20479;-87
2022/08/15 07:30:24;;;;;;;0.10;0.00;;;23.30;99.90;;;;;;4891330;29;20782;-87
2022/08/15 07:32:53;;;;;;;0.10;0.00;;;23.30;99.90;;;;;;4882899;29;20457;-86
2022/08/15 07:35:29;;;;;;;0.10;0.00;;;23.40;99.90;;;;;;4895982;29;20523;-86
2022/08/15 07:38:01;;;;;;;0.10;0.00;;;23.50;99.90;;;;;;4896344;29;20480;-87
2022/08/15 07:40:34;;;;;;;0.10;0.00;;;23.70;99.90;;;;;;4896095;29;20968;-86
2022/08/15 07:43:01;;;;;;;0.10;0.00;;;23.70;99.90;;;;;;4896457;29;20439;-87
2022/08/15 07:45:37;;;;;;;0.10;0.00;;;23.90;99.90;;;;;;4894173;29;20460;-87
2022/08/15 07:48:18;;;;;;;0.10;0.00;;;24.10;99.90;;;;;;4895996;29;20449;-88
2022/08/15 07:51:00;;;;;;;0.10;0.00;;;24.20;99.90;;;;;;4895200;29;20453;-90
2022/08/15 07:53:26;;;;;;;0.10;0.00;;;24.30;99.90;;;;;;4895220;29;20835;-89
2022/08/15 07:56:16;;;;;;;0.10;0.00;;;24.30;99.90;;;;;;4897020;29;21004;-89
2022/08/15 07:58:43;;;;;;;0.10;0.00;;;24.60;99.90;;;;;;4895223;29;20570;-87
2022/08/15 08:01:35;;;;;;;0.10;0.00;;;24.90;99.90;;;;;;4905116;29;20457;-89
2022/08/15 08:04:13;;;;;;;0.10;0.00;;;25.30;99.90;;;;;;4898563;29;20876;-89
2022/08/15 08:06:55;;;;;;;0.10;0.00;;;25.50;99.90;;;;;;4895792;29;20452;-88
2022/08/15 08:09:44;;;;;;;0.10;0.00;;;25.70;99.90;;;;;;4895865;29;20491;-88
2022/08/15 08:12:28;;;;;;;0.10;0.10;;;26.20;99.90;;;;;;4894513;29;20576;-89
2022/08/15 08:15:17;;;;;;;0.10;0.00;;;26.30;99.90;;;;;;4894653;29;21004;-87
2022/08/15 08:17:46;;;;;;;0.10;0.00;;;26.50;99.90;;;;;;4894299;29;20800;-90
2022/08/15 08:20:36;;;;;;;0.10;0.00;;;26.50;99.90;;;;;;4896248;29;20949;-94
2022/08/15 08:23:13;;;;;;;0.10;0.00;;;26.60;99.90;;;;;;4897343;29;20473;-90
2022/08/15 08:26:09;;;;;;;0.10;0.00;;;26.80;99.90;;;;;;4897570;29;20925;-90
2022/08/15 08:28:46;;;;;;;0.10;0.00;;;26.60;99.90;;;;;;4893089;29;20821;-85
2022/08/15 08:31:26;;;;;;;0.10;0.00;;;26.70;99.90;;;;;;4891579;29;20456;-85
2022/08/15 08:34:21;;;;;;;0.10;0.00;;;26.90;99.90;;;;;;4895912;29;20528;-87
2022/08/15 08:37:08;;;;;;;0.10;0.00;;;27.10;99.90;;;;;;4895172;29;20534;-86
2022/08/15 08:39:41;;;;;;;0.10;0.00;;;26.90;99.90;;;;;;4894772;29;20493;-85
2022/08/15 08:42:45;;;;;;;0.10;0.00;;;27.20;99.90;;;;;;4892671;29;20481;-86
2022/08/15 08:45:34;;;;;;;0.10;0.00;;;27.40;99.90;;;;;;4895046;29;20449;-84
2022/08/15 08:48:31;;;;;;;0.10;0.00;;;27.30;99.90;;;;;;4893495;29;20449;-85
2022/08/15 08:51:22;;;;;;;0.10;0.00;;;27.60;99.90;;;;;;4893310;29;21020;-83
2022/08/15 08:53:53;;;;;;;0.10;0.00;;;27.70;99.90;;;;;;4891490;29;20548;-85
2022/08/15 08:56:26;;;;;;;0.10;0.00;;;27.30;99.90;;;;;;4893959;29;20821;-84
2022/08/15 08:59:02;;;;;;;0.10;0.00;;;27.40;99.90;;;;;;4894129;29;20861;-83
2022/08/15 09:01:29;;;;;;;0.10;0.00;;;27.90;99.90;;;;;;4894742;29;20451;-85
2022/08/15 09:04:03;;;;;;;0.10;0.00;;;28.10;99.90;;;;;;4894194;29;20477;-84
2022/08/15 09:06:39;;;;;;;0.10;0.00;;;28.40;99.90;;;;;;4893700;29;20449;-84
2022/08/15 09:09:26;;;;;;;0.10;0.00;;;28.60;99.90;;;;;;4894730;29;20917;-84
2022/08/15 09:12:02;;;;;;;0.10;0.00;;;28.60;99.90;;;;;;4894046;29;20457;-84
2022/08/15 09:14:35;;;;;;;0.10;0.00;;;28.80;99.90;;;;;;4893712;29;20599;-85
2022/08/15 09:17:11;;;;;;;0.10;0.00;;;29.00;99.90;;;;;;4895854;29;20437;-83
2022/08/15 09:19:55;;;;;;;0.10;0.00;;;29.10;99.90;;;;;;4893149;29;20579;-84
2022/08/15 09:22:21;;;;;;;0.10;0.00;;;29.30;99.90;;;;;;4894486;29;20437;-83
2022/08/15 09:24:46;;;;;;;0.10;0.00;;;29.10;99.90;;;;;;4894619;29;20439;-85
2022/08/15 09:27:22;;;;;;;0.10;0.00;;;28.60;99.90;;;;;;4894468;29;20300;-85
2022/08/15 09:29:57;;;;;;;0.10;0.00;;;28.30;99.90;;;;;;4895384;29;20192;-82
2022/08/15 09:32:29;;;;;;;0.10;0.00;;;28.20;99.90;;;;;;4895281;29;20428;-83
2022/08/15 09:35:35;;;;;;;0.10;0.00;;;28.00;99.90;;;;;;4892321;29;20532;-83
2022/08/15 09:38:31;;;;;;;0.10;0.00;;;28.00;99.90;;;;;;4889380;29;20444;-83
2022/08/15 09:41:29;;;;;;;0.10;0.00;;;28.00;99.90;;;;;;4893230;29;20489;-83
2022/08/15 09:44:19;;;;;;;0.10;0.00;;;28.00;99.90;;;;;;4886967;29;20472;-84
2022/08/15 09:46:49;;;;;;;0.10;0.00;;;27.80;99.90;;;;;;4892525;29;20449;-84
2022/08/15 09:49:44;;;;;;;0.10;0.00;;;27.90;99.90;;;;;;4889892;29;20449;-82
2022/08/15 09:52:36;;;;;;;0.10;0.00;;;27.60;99.90;;;;;;4890864;29;20453;-83
2022/08/15 09:55:21;;;;;;;0.10;0.00;;;27.70;99.90;;;;;;4880720;29;20437;-83
2022/08/15 09:57:53;;;;;;;0.10;0.00;;;28.70;99.90;;;;;;4892464;29;20452;-83
2022/08/15 10:00:39;;;;;;;0.10;0.00;;;29.20;99.90;;;;;;4891245;29;20968;-83
2022/08/15 10:03:22;;;;;;;0.10;0.00;;;29.30;99.90;;;;;;4890340;29;20457;-82
2022/08/15 10:06:07;;;;;;;0.10;0.00;;;30.10;99.90;;;;;;4887804;29;20438;-81
2022/08/15 10:08:53;;;;;;;0.10;0.00;;;30.00;99.90;;;;;;4889569;29;20473;-81
2022/08/15 10:11:38;;;;;;;0.10;0.00;;;30.00;99.90;;;;;;4887042;29;20456;-82
2022/08/15 10:14:48;;;;;;;0.10;0.00;;;30.40;99.90;;;;;;4890841;29;20485;-79
2022/08/15 10:17:23;;;;;;;0.10;0.00;;;30.90;99.90;;;;;;4891375;29;20446;-80
2022/08/15 10:19:49;;;;;;;0.10;0.00;;;31.30;99.90;;;;;;4890893;29;20495;-79
2022/08/15 10:22:24;;;;;;;0.10;0.00;;;31.40;99.90;;;;;;4891157;29;20453;-79
2022/08/15 10:25:12;;;;;;;0.10;0.00;;;31.90;99.90;;;;;;4892193;29;20189;-79
2022/08/15 10:28:12;;;;;;;0.10;0.00;;;30.90;99.90;;;;;;4889702;29;20476;-79
2022/08/15 10:30:51;;;;;;;0.10;0.00;;;30.10;99.90;;;;;;4894059;29;20452;-79
2022/08/15 10:33:35;;;;;;;0.10;0.00;;;31.00;99.90;;;;;;4886936;29;20453;-79
2022/08/15 10:36:13;;;;;;;0.10;0.00;;;31.20;99.90;;;;;;4895293;29;20441;-79
2022/08/15 10:38:44;;;;;;;0.10;0.00;;;30.40;99.90;;;;;;4892896;29;20473;-80
2022/08/15 10:41:40;;;;;;;0.10;0.00;;;30.00;99.90;;;;;;4896173;29;20945;-78
2022/08/15 10:44:36;;;;;;;0.10;0.00;;;29.80;99.90;;;;;;4890591;29;20571;-81
2022/08/15 10:47:02;;;;;;;0.10;0.00;;;31.00;99.90;;;;;;4907637;29;20512;-78
2022/08/15 10:49:52;;;;;;;0.10;0.00;;;31.60;99.90;;;;;;4895790;29;20433;-79
2022/08/15 10:52:48;;;;;;;0.10;0.00;;;31.50;99.90;;;;;;4894854;29;20197;-79
2022/08/15 10:55:23;;;;;;;0.10;0.00;;;30.90;99.90;;;;;;4893501;29;21040;-78
2022/08/15 10:57:53;;;;;;;0.10;0.00;;;30.50;99.90;;;;;;4895467;29;20807;-82
2022/08/15 11:00:43;;;;;;;0.10;0.00;;;30.70;99.90;;;;;;4894950;29;20926;-81
2022/08/15 11:03:20;;;;;;;0.10;0.00;;;31.40;99.90;;;;;;4892017;29;20477;-81
2022/08/15 11:06:07;;;;;;;0.10;0.00;;;31.80;99.90;;;;;;4889613;29;20958;-81
2022/08/15 11:08:42;;;;;;;0.10;0.00;;;31.70;99.90;;;;;;4886390;29;20488;-80
2022/08/15 11:11:11;;;;;;;0.10;0.00;;;31.10;99.90;;;;;;4891687;29;20483;-80
2022/08/15 11:13:39;;;;;;;0.10;0.00;;;30.70;99.90;;;;;;4891998;29;21060;-81
2022/08/15 11:16:15;;;;;;;0.10;0.00;;;31.50;99.90;;;;;;4907019;29;20452;-81
2022/08/15 11:18:50;;;;;;;0.10;0.00;;;31.20;99.90;;;;;;4907862;29;21016;-81
2022/08/15 11:21:26;;;;;;;0.10;0.00;;;31.20;99.90;;;;;;4894321;29;20457;-81
2022/08/15 11:23:59;;;;;;;0.10;0.00;;;32.40;99.90;;;;;;4892583;29;20452;-80
2022/08/15 11:26:28;;;;;;;0.10;0.00;;;32.80;99.90;;;;;;4894562;29;20488;-79
2022/08/15 11:29:15;;;;;;;0.10;0.00;;;32.30;99.90;;;;;;4894441;29;20513;-79
2022/08/15 11:31:51;;;;;;;0.10;0.00;;;31.60;99.90;;;;;;4894005;29;21255;-80
2022/08/15 11:34:38;;;;;;;0.10;0.00;;;30.90;99.90;;;;;;4892035;29;20457;-80
2022/08/15 11:37:24;;;;;;;0.10;0.00;;;30.30;99.90;;;;;;4892713;29;20445;-79
2022/08/15 11:39:58;;;;;;;0.10;0.00;;;29.70;99.90;;;;;;4893644;29;21107;-80
2022/08/15 11:42:27;;;;;;;0.10;0.00;;;29.30;99.90;;;;;;4892387;29;20499;-80
2022/08/15 11:44:59;;;;;;;0.10;0.00;;;28.90;99.90;;;;;;4893415;29;20541;-80
2022/08/15 11:47:31;;;;;;;0.10;0.00;;;28.60;99.90;;;;;;4892875;29;20464;-86
2022/08/15 11:50:04;;;;;;;0.10;0.00;;;28.50;99.90;;;;;;4903711;29;20464;-82
2022/08/15 11:52:35;;;;;;;0.10;0.00;;;28.60;99.90;;;;;;4893164;29;21283;-83
2022/08/15 11:55:14;;;;;;;0.10;0.00;;;29.00;99.90;;;;;;4890194;29;20449;-80
2022/08/15 11:57:42;;;;;;;0.10;0.00;;;30.10;99.90;;;;;;4893021;29;20539;-80
2022/08/15 12:00:23;;;;;;;0.10;0.00;;;30.10;99.90;;;;;;4894303;29;20489;-81
2022/08/15 12:02:49;;;;;;;0.10;0.00;;;31.00;99.90;;;;;;4892335;29;20460;-82
2022/08/15 12:05:25;;;;;;;0.10;0.00;;;31.70;99.90;;;;;;4891696;29;20864;-81
2022/08/15 12:07:54;;;;;;;0.10;0.00;;;32.40;99.90;;;;;;4907530;29;20452;-80
2022/08/15 12:10:34;;;;;;;0.10;0.00;;;33.30;99.90;;;;;;4894048;29;20464;-81
2022/08/15 12:13:00;;;;;;;0.10;0.00;;;33.50;99.90;;;;;;4893968;29;20503;-78
2022/08/15 12:15:32;;;;;;;0.10;0.00;;;34.10;99.90;;;;;;4891523;29;20508;-78
2022/08/15 12:18:18;;;;;;;0.10;0.00;;;34.70;99.90;;;;;;4893360;29;20497;-79
2022/08/15 12:20:47;;;;;;;0.10;0.00;;;34.80;99.90;;;;;;4875752;29;20536;-79
2022/08/15 12:23:30;;;;;;;0.10;0.00;;;35.30;99.90;;;;;;4891517;29;20459;-79
2022/08/15 12:26:05;;;;;;;0.00;0.00;;;35.00;99.90;;;;;;4892773;29;20468;-77
2022/08/15 12:28:32;;;;;;;0.10;0.00;;;34.90;99.90;;;;;;4888101;29;20457;-79
2022/08/15 12:31:11;;;;;;;0.10;0.00;;;34.50;99.90;;;;;;4891131;29;20875;-78
2022/08/15 12:33:37;;;;;;;0.10;0.00;;;33.60;99.90;;;;;;4892449;29;20778;-79
2022/08/15 12:36:03;;;;;;;0.10;0.00;;;33.00;99.90;;;;;;4893632;29;20472;-81
2022/08/15 12:38:30;;;;;;;0.10;0.00;;;33.00;99.90;;;;;;4891034;29;20512;-81
2022/08/15 12:40:56;;;;;;;0.10;0.00;;;32.70;99.90;;;;;;4892826;29;20197;-80
2022/08/15 12:43:21;;;;;;;0.00;0.00;;;32.00;99.90;;;;;;4894333;29;20442;-81
2022/08/15 12:45:47;;;;;;;0.10;0.00;;;31.90;99.90;;;;;;4892422;29;20197;-78
2022/08/15 12:48:25;;;;;;;0.10;0.00;;;32.10;99.90;;;;;;4893089;29;20786;-81
2022/08/15 12:50:51;;;;;;;0.10;0.00;;;31.80;99.90;;;;;;4906936;29;21245;-81
2022/08/15 12:53:17;;;;;;;0.10;0.00;;;31.90;99.90;;;;;;4895884;29;21038;-81
2022/08/15 12:55:45;;;;;;;0.10;0.00;;;32.50;99.90;;;;;;4895466;29;20193;-80
2022/08/15 12:58:11;;;;;;;0.10;0.00;;;31.90;99.90;;;;;;4897004;29;20441;-79
2022/08/15 13:00:37;;;;;;;0.10;0.00;;;31.80;99.90;;;;;;4895931;29;20444;-79
2022/08/15 13:03:21;;;;;;;0.10;0.00;;;32.00;99.90;;;;;;4893940;29;20460;-79
2022/08/15 13:05:52;;;;;;;0.10;0.00;;;31.70;99.90;;;;;;4895630;29;20993;-80
2022/08/15 13:08:18;;;;;;;0.10;0.00;;;31.30;99.90;;;;;;4895378;29;20434;-80
2022/08/15 13:10:44;;;;;;;0.10;0.00;;;30.90;99.90;;;;;;4895709;29;20458;-82
2022/08/15 13:13:12;;;;;;;0.10;0.00;;;30.40;99.90;;;;;;4910775;29;20526;-82
2022/08/15 13:15:38;;;;;;;0.10;0.00;;;30.00;99.90;;;;;;4894644;29;20229;-82
2022/08/15 13:18:05;;;;;;;0.10;0.00;;;29.90;99.90;;;;;;4893067;29;20972;-81
2022/08/15 13:26:00;;;;;;;0.10;0.00;;;29.30;99.90;;;;;;4878554;29;20482;-81
2022/08/15 13:28:25;;;;;;;0.10;0.00;;;29.00;99.90;;;;;;4877399;29;20461;-81